createdAt,value
2018-07-21T00:00:23.222Z,86.40
2018-07-21T00:02:52.110Z,86.00
2018-07-21T00:05:21.002Z,86.80
2018-07-21T00:07:49.882Z,86.50
2018-07-21T00:10:18.786Z,86.20
2018-07-21T00:12:47.661Z,86.50
2018-07-21T00:15:16.579Z,86.30
2018-07-21T00:17:45.515Z,86.60
2018-07-21T00:20:14.418Z,86.30
2018-07-21T00:22:43.323Z,86.20
2018-07-21T00:25:12.208Z,85.40
2018-07-21T00:27:41.099Z,85.80
2018-07-21T00:30:09.990Z,85.20
2018-07-21T00:32:38.886Z,85.10
2018-07-21T00:35:07.771Z,85.90
2018-07-21T00:37:36.662Z,85.20
2018-07-21T00:40:05.600Z,86.00
2018-07-21T00:42:34.498Z,86.50
2018-07-21T00:45:03.415Z,86.00
2018-07-21T00:47:32.302Z,85.60
2018-07-21T00:50:01.217Z,86.00
2018-07-21T00:52:30.108Z,85.70
2018-07-21T00:54:59.010Z,85.80
2018-07-21T00:57:27.918Z,85.90
2018-07-21T00:59:56.802Z,85.00
2018-07-21T01:02:25.707Z,85.90
2018-07-21T01:04:54.587Z,86.20
2018-07-21T01:07:23.477Z,85.10
2018-07-21T01:09:55.233Z,85.00
2018-07-21T01:12:24.231Z,85.00
2018-07-21T01:14:53.391Z,85.00
2018-07-21T01:17:23.171Z,85.50
2018-07-21T01:19:52.056Z,85.50
2018-07-21T01:22:22.142Z,85.10
2018-07-21T01:24:51.055Z,85.40
2018-07-21T01:27:19.957Z,85.30
2018-07-21T01:29:48.854Z,86.00
2018-07-21T01:32:17.752Z,85.70
2018-07-21T01:34:46.637Z,85.50
2018-07-21T01:37:15.514Z,86.40
2018-07-21T01:39:44.475Z,85.80
2018-07-21T01:42:13.371Z,85.50
2018-07-21T01:44:42.282Z,86.00
2018-07-21T01:47:11.175Z,85.90
2018-07-21T01:49:40.266Z,86.40
2018-07-21T01:52:09.154Z,86.80
2018-07-21T01:54:38.063Z,86.40
2018-07-21T01:57:06.963Z,86.40
2018-07-21T01:59:35.866Z,87.40
2018-07-21T02:02:04.803Z,87.00
2018-07-21T02:04:33.695Z,86.50
2018-07-21T02:07:02.575Z,86.90
2018-07-21T02:09:31.461Z,86.90
2018-07-21T02:12:00.450Z,87.70
2018-07-21T02:14:29.325Z,87.40
2018-07-21T02:19:26.754Z,86.40
2018-07-21T02:21:55.658Z,86.50
2018-07-21T02:24:24.545Z,87.50
2018-07-21T02:26:53.442Z,86.70
2018-07-21T02:29:22.329Z,87.10
2018-07-21T02:31:51.217Z,87.00
2018-07-21T02:34:20.102Z,87.10
2018-07-21T02:36:48.994Z,87.10
2018-07-21T02:39:17.891Z,87.10
2018-07-21T02:41:46.751Z,87.20
2018-07-21T02:44:15.689Z,86.80
2018-07-21T02:49:13.108Z,87.00
2018-07-21T02:51:41.987Z,87.40
2018-07-21T02:54:10.883Z,87.20
2018-07-21T02:56:39.762Z,87.70
2018-07-21T02:59:08.663Z,87.70
2018-07-21T03:01:37.543Z,87.20
2018-07-21T03:04:06.429Z,87.80
2018-07-21T03:06:35.303Z,88.00
2018-07-21T03:09:07.145Z,88.10
2018-07-21T03:11:37.643Z,87.90
2018-07-21T03:14:06.620Z,87.80
2018-07-21T03:16:35.784Z,88.10
2018-07-21T03:19:04.739Z,87.90
2018-07-21T03:21:33.866Z,87.40
2018-07-21T03:24:02.855Z,88.40
2018-07-21T03:26:31.762Z,87.70
2018-07-21T03:29:00.673Z,88.10
2018-07-21T03:31:29.560Z,87.90
2018-07-21T03:33:58.438Z,87.40
2018-07-21T03:36:27.327Z,88.20
2018-07-21T03:38:56.279Z,88.50
2018-07-21T03:41:25.171Z,87.90
2018-07-21T03:43:54.067Z,87.50
2018-07-21T03:46:22.960Z,88.10
2018-07-21T03:48:51.859Z,88.90
2018-07-21T03:51:20.786Z,87.70
2018-07-21T03:53:49.678Z,87.60
2018-07-21T03:56:18.548Z,88.90
2018-07-21T03:58:47.756Z,88.00
2018-07-21T04:01:16.598Z,88.00
2018-07-21T04:03:45.492Z,87.90
2018-07-21T04:06:14.355Z,88.60
2018-07-21T04:08:43.238Z,88.70
2018-07-21T04:11:12.118Z,88.10
2018-07-21T04:16:09.610Z,87.70
2018-07-21T04:18:38.486Z,87.30
2018-07-21T04:21:07.371Z,86.90
2018-07-21T04:23:36.262Z,87.00
2018-07-21T04:26:05.183Z,86.90
2018-07-21T04:28:34.076Z,87.20
2018-07-21T04:31:02.958Z,87.00
2018-07-21T04:33:31.849Z,88.50
2018-07-21T04:36:00.737Z,86.90
2018-07-21T04:38:29.624Z,88.70
2018-07-21T04:40:58.498Z,87.10
2018-07-21T04:43:27.386Z,87.50
2018-07-21T04:45:56.275Z,87.60
2018-07-21T04:48:25.160Z,87.30
2018-07-21T04:50:54.048Z,87.10
2018-07-21T04:53:22.935Z,88.00
2018-07-21T04:55:51.842Z,87.60
2018-07-21T04:58:20.998Z,87.90
2018-07-21T05:00:50.015Z,88.10
2018-07-21T05:03:18.780Z,87.30
2018-07-21T05:05:47.669Z,88.50
2018-07-21T05:08:16.546Z,87.70
2018-07-21T05:10:45.468Z,88.20
2018-07-21T05:13:14.356Z,88.40
2018-07-21T05:18:11.771Z,87.90
2018-07-21T05:20:40.660Z,88.30
2018-07-21T05:23:09.532Z,88.00
2018-07-21T05:25:38.431Z,87.80
2018-07-21T05:28:07.309Z,88.60
2018-07-21T05:30:36.202Z,88.70
2018-07-21T05:33:05.074Z,89.30
2018-07-21T05:35:34.053Z,88.60
2018-07-21T05:38:02.934Z,88.60
2018-07-21T05:40:31.834Z,88.50
2018-07-21T05:43:00.734Z,89.00
2018-07-21T05:45:29.630Z,90.00
2018-07-21T05:47:58.506Z,89.60
2018-07-21T05:50:27.404Z,88.70
2018-07-21T05:52:56.278Z,90.20
2018-07-21T05:55:25.262Z,88.50
2018-07-21T05:57:54.154Z,90.20
2018-07-21T06:00:23.050Z,88.10
2018-07-21T06:02:52.025Z,89.90
2018-07-21T06:05:20.814Z,89.00
2018-07-21T06:07:49.682Z,89.10
2018-07-21T06:10:18.575Z,90.20
2018-07-21T06:12:47.450Z,87.90
2018-07-21T06:15:16.341Z,89.30
2018-07-21T06:17:45.217Z,89.30
2018-07-21T06:20:14.094Z,89.70
2018-07-21T06:22:42.966Z,89.10
2018-07-21T06:25:11.914Z,87.90
2018-07-21T06:27:40.733Z,90.10
2018-07-21T06:30:09.630Z,89.30
2018-07-21T06:32:38.510Z,88.90
2018-07-21T06:35:07.499Z,89.20
2018-07-21T06:37:36.375Z,89.60
2018-07-21T06:42:33.959Z,89.40
2018-07-21T06:45:02.867Z,88.50
2018-07-21T06:47:31.756Z,89.30
2018-07-21T06:50:00.630Z,89.90
2018-07-21T06:52:29.569Z,89.60
2018-07-21T06:54:58.492Z,89.10
2018-07-21T06:57:27.370Z,88.80
2018-07-21T06:59:56.271Z,89.30
2018-07-21T07:02:25.146Z,88.80
2018-07-21T07:04:54.035Z,87.80
2018-07-21T07:07:22.914Z,90.20
2018-07-21T07:09:51.830Z,88.00
2018-07-21T07:14:49.241Z,87.70
2018-07-21T07:17:18.122Z,88.60
2018-07-21T07:19:47.003Z,86.80
2018-07-21T07:22:15.938Z,87.70
2018-07-21T07:24:44.833Z,88.60
2018-07-21T07:27:13.720Z,87.20
2018-07-21T07:29:42.595Z,87.20
2018-07-21T07:32:11.470Z,87.50
2018-07-21T07:34:40.350Z,86.70
2018-07-21T07:37:09.234Z,85.70
2018-07-21T07:39:38.110Z,84.80
2018-07-21T07:42:07.322Z,86.60
2018-07-21T07:44:36.539Z,84.80
2018-07-21T07:47:05.722Z,88.60
2018-07-21T07:49:34.598Z,84.90
2018-07-21T07:52:03.502Z,82.90
2018-07-21T07:54:32.388Z,85.00
2018-07-21T07:57:01.299Z,87.20
2018-07-21T07:59:30.185Z,85.70
2018-07-21T08:01:59.071Z,84.50
2018-07-21T08:04:27.965Z,83.60
2018-07-21T08:06:56.861Z,85.40
2018-07-21T08:09:25.751Z,85.20
2018-07-21T08:11:54.659Z,85.90
2018-07-21T08:14:23.538Z,83.10
2018-07-21T08:16:52.430Z,82.30
2018-07-21T08:19:21.327Z,82.50
2018-07-21T08:21:50.211Z,83.60
2018-07-21T08:24:19.094Z,83.40
2018-07-21T08:26:47.982Z,83.60
2018-07-21T08:29:16.862Z,82.70
2018-07-21T08:31:45.762Z,83.10
2018-07-21T08:34:14.644Z,82.00
2018-07-21T08:36:43.569Z,83.10
2018-07-21T08:41:41.274Z,81.60
2018-07-21T08:44:10.407Z,81.50
2018-07-21T08:46:39.302Z,81.80
2018-07-21T08:51:36.772Z,81.30
2018-07-21T08:54:05.739Z,81.30
2018-07-21T08:56:34.591Z,82.20
2018-07-21T08:59:03.699Z,82.00
2018-07-21T09:01:32.636Z,81.20
2018-07-21T09:04:01.499Z,80.30
2018-07-21T09:06:30.401Z,82.00
2018-07-21T09:09:04.478Z,80.80
2018-07-21T09:11:33.710Z,81.00
2018-07-21T09:14:02.598Z,80.30
2018-07-21T09:16:31.739Z,80.00
2018-07-21T09:19:00.659Z,78.50
2018-07-21T09:21:29.572Z,79.10
2018-07-21T09:23:58.426Z,79.30
2018-07-21T09:26:27.299Z,79.30
2018-07-21T09:28:56.194Z,79.40
2018-07-21T09:31:25.166Z,81.00
2018-07-21T09:33:54.043Z,82.30
2018-07-21T09:36:22.939Z,79.50
2018-07-21T09:38:51.861Z,78.10
2018-07-21T09:41:20.742Z,77.00
2018-07-21T09:43:49.674Z,80.70
2018-07-21T09:46:18.526Z,76.90
2018-07-21T09:48:47.426Z,78.20
2018-07-21T09:51:16.302Z,77.50
2018-07-21T09:53:45.192Z,77.80
2018-07-21T09:56:14.129Z,81.30
2018-07-21T09:58:43.015Z,80.40
2018-07-21T10:01:11.895Z,78.70
2018-07-21T10:03:40.767Z,76.80
2018-07-21T10:06:09.642Z,76.70
2018-07-21T10:08:39.329Z,77.20
2018-07-21T10:11:08.198Z,78.90
2018-07-21T10:13:37.094Z,78.30
2018-07-21T10:16:05.983Z,77.40
2018-07-21T10:18:34.877Z,78.00
2018-07-21T10:21:03.774Z,78.60
2018-07-21T10:23:32.655Z,77.40
2018-07-21T10:26:07.098Z,79.90
2018-07-21T10:28:41.422Z,77.70
2018-07-21T10:31:10.607Z,77.70
2018-07-21T10:33:39.565Z,78.60
2018-07-21T10:36:08.382Z,81.20
2018-07-21T10:38:37.293Z,78.10
2018-07-21T10:41:06.162Z,79.70
2018-07-21T10:43:35.142Z,77.90
2018-07-21T10:46:04.027Z,77.70
2018-07-21T10:48:32.922Z,77.00
2018-07-21T10:51:01.785Z,76.40
2018-07-21T10:53:30.747Z,77.30
2018-07-21T10:55:59.616Z,76.00
2018-07-21T10:58:28.507Z,77.10
2018-07-21T11:00:57.386Z,79.20
2018-07-21T11:03:26.271Z,77.00
2018-07-21T11:05:55.176Z,78.90
2018-07-21T11:08:24.062Z,77.90
2018-07-21T11:10:52.947Z,77.70
2018-07-21T11:13:21.828Z,77.10
2018-07-21T11:15:50.746Z,77.90
2018-07-21T11:18:19.655Z,75.70
2018-07-21T11:20:48.543Z,77.90
2018-07-21T11:23:17.430Z,76.50
2018-07-21T11:25:46.302Z,79.40
2018-07-21T11:28:15.175Z,78.20
2018-07-21T11:30:44.063Z,78.30
2018-07-21T11:33:22.548Z,79.50
2018-07-21T11:35:52.916Z,75.30
2018-07-21T11:38:21.459Z,78.30
2018-07-21T11:40:50.348Z,78.30
2018-07-21T11:43:19.247Z,78.30
2018-07-21T11:45:48.484Z,77.60
2018-07-21T11:48:17.376Z,75.60
2018-07-21T11:50:46.270Z,76.90
2018-07-21T11:53:15.142Z,81.30
2018-07-21T11:55:44.029Z,79.90
2018-07-21T11:58:12.914Z,80.60
2018-07-21T12:00:41.803Z,82.80
2018-07-21T12:03:11.012Z,80.70
2018-07-21T12:05:39.975Z,77.60
2018-07-21T12:08:08.799Z,77.80
2018-07-21T12:10:37.675Z,78.00
2018-07-21T12:13:06.588Z,75.40
2018-07-21T12:15:35.527Z,76.40
2018-07-21T12:18:04.670Z,77.10
2018-07-21T12:20:33.583Z,78.80
2018-07-21T12:23:02.472Z,76.70
2018-07-21T12:25:31.371Z,77.50
2018-07-21T12:28:00.249Z,79.50
2018-07-21T12:30:29.140Z,75.40
2018-07-21T12:32:58.020Z,76.70
2018-07-21T12:35:26.902Z,75.40
2018-07-21T12:37:55.784Z,73.70
2018-07-21T12:40:24.662Z,74.20
2018-07-21T12:42:53.565Z,75.00
2018-07-21T12:45:22.463Z,76.90
2018-07-21T12:47:51.334Z,74.40
2018-07-21T12:50:20.215Z,73.70
2018-07-21T12:52:49.097Z,73.80
2018-07-21T12:55:18.007Z,76.90
2018-07-21T12:57:46.902Z,73.90
2018-07-21T13:00:15.817Z,74.90
2018-07-21T13:02:44.703Z,75.10
2018-07-21T13:05:13.623Z,71.00
2018-07-21T13:07:42.502Z,73.10
2018-07-21T13:10:11.707Z,74.90
2018-07-21T13:12:40.576Z,76.70
2018-07-21T13:15:09.518Z,73.10
2018-07-21T13:17:38.422Z,75.70
2018-07-21T13:20:07.766Z,78.90
2018-07-21T13:22:36.647Z,76.80
2018-07-21T13:25:05.549Z,79.30
2018-07-21T13:27:34.454Z,75.90
2018-07-21T13:30:03.381Z,77.50
2018-07-21T13:32:32.274Z,77.20
2018-07-21T13:35:01.173Z,76.60
2018-07-21T13:37:30.071Z,77.20
2018-07-21T13:39:59.223Z,76.90
2018-07-21T13:42:28.111Z,75.80
2018-07-21T13:44:57.008Z,76.90
2018-07-21T13:47:25.877Z,76.10
2018-07-21T13:49:54.779Z,77.50
2018-07-21T13:52:23.685Z,76.60
2018-07-21T13:54:52.742Z,77.90
2018-07-21T13:57:21.574Z,79.00
2018-07-21T13:59:50.514Z,78.60
2018-07-21T14:02:19.436Z,78.60
2018-07-21T14:04:48.288Z,77.30
2018-07-21T14:07:17.183Z,78.90
2018-07-21T14:09:46.072Z,77.70
2018-07-21T14:12:14.958Z,77.70
2018-07-21T14:14:43.841Z,78.20
2018-07-21T14:17:12.724Z,78.40
2018-07-21T14:19:41.599Z,77.20
2018-07-21T14:22:10.494Z,78.20
2018-07-21T14:24:39.376Z,78.10
2018-07-21T14:27:08.271Z,78.30
2018-07-21T14:29:37.197Z,78.90
2018-07-21T14:32:06.314Z,79.90
2018-07-21T14:34:35.206Z,78.70
2018-07-21T14:37:04.106Z,78.80
2018-07-21T14:39:32.986Z,79.20
2018-07-21T14:42:01.895Z,79.10
2018-07-21T14:44:30.775Z,78.10
2018-07-21T14:46:59.653Z,79.10
2018-07-21T14:49:28.540Z,79.10
2018-07-21T14:51:57.481Z,80.20
2018-07-21T14:54:26.354Z,77.60
2018-07-21T14:56:55.248Z,77.20
2018-07-21T14:59:24.138Z,76.10
2018-07-21T15:01:53.027Z,77.80
2018-07-21T15:04:21.909Z,78.00
2018-07-21T15:06:50.803Z,79.00
2018-07-21T15:09:19.674Z,79.70
2018-07-21T15:11:48.563Z,79.00
2018-07-21T15:14:17.458Z,79.80
2018-07-21T15:16:46.406Z,81.10
2018-07-21T15:19:15.296Z,80.70
2018-07-21T15:21:44.191Z,79.90
2018-07-21T15:24:13.070Z,79.10
2018-07-21T15:26:42.263Z,79.50
2018-07-21T15:29:11.152Z,80.70
2018-07-21T15:31:40.022Z,81.00
2018-07-21T15:34:08.904Z,80.10
2018-07-21T15:36:37.806Z,81.40
2018-07-21T15:39:07.991Z,82.00
2018-07-21T15:41:37.008Z,82.30
2018-07-21T15:44:05.878Z,79.20
2018-07-21T15:46:34.980Z,79.10
2018-07-21T15:49:03.926Z,80.20
2018-07-21T15:51:32.838Z,79.90
2018-07-21T15:54:01.711Z,79.10
2018-07-21T15:56:31.042Z,78.00
2018-07-21T15:58:59.954Z,79.10
2018-07-21T16:01:28.920Z,76.90
2018-07-21T16:03:57.866Z,77.70
2018-07-21T16:06:26.758Z,79.90
2018-07-21T16:08:55.679Z,77.40
2018-07-21T16:11:24.955Z,77.30
2018-07-21T16:13:53.871Z,77.20
2018-07-21T16:16:22.747Z,75.40
2018-07-21T16:18:51.734Z,75.80
2018-07-21T16:21:20.622Z,73.70
2018-07-21T16:23:49.582Z,73.40
2018-07-21T16:26:18.459Z,71.80
2018-07-21T16:28:47.362Z,70.10
2018-07-21T16:31:16.494Z,71.20
2018-07-21T16:33:45.399Z,69.30
2018-07-21T16:36:14.278Z,70.20
2018-07-21T16:38:43.391Z,71.80
2018-07-21T16:41:12.474Z,69.10
2018-07-21T16:43:41.356Z,69.00
2018-07-21T16:46:10.227Z,69.10
2018-07-21T16:48:39.117Z,67.90
2018-07-21T16:51:08.476Z,68.30
2018-07-21T16:53:37.338Z,68.80
2018-07-21T16:56:06.214Z,67.90
2018-07-21T16:58:35.116Z,68.80
2018-07-21T17:01:03.994Z,68.20
2018-07-21T17:03:32.912Z,68.00
2018-07-21T17:06:01.803Z,69.20
2018-07-21T17:08:30.663Z,69.00
2018-07-21T17:10:59.535Z,69.20
2018-07-21T17:13:28.428Z,70.30
2018-07-21T17:15:57.502Z,69.50
2018-07-21T17:18:26.411Z,69.60
2018-07-21T17:20:55.299Z,70.30
2018-07-21T17:23:24.290Z,70.90
2018-07-21T17:25:53.290Z,71.00
2018-07-21T17:28:22.504Z,70.90
2018-07-21T17:30:51.423Z,71.00
2018-07-21T17:33:20.333Z,72.00
2018-07-21T17:35:49.243Z,71.40
2018-07-21T17:38:18.129Z,72.00
2018-07-21T17:40:47.018Z,72.00
2018-07-21T17:43:15.922Z,73.40
2018-07-21T17:45:44.811Z,74.70
2018-07-21T17:48:13.899Z,74.30
2018-07-21T17:50:42.766Z,75.00
2018-07-21T17:53:11.734Z,73.90
2018-07-21T17:55:40.674Z,74.20
2018-07-21T17:58:09.861Z,74.30
2018-07-21T18:00:38.655Z,75.30
2018-07-21T18:03:07.544Z,75.50
2018-07-21T18:05:36.434Z,75.50
2018-07-21T18:08:05.322Z,76.00
2018-07-21T18:10:34.206Z,77.20
2018-07-21T18:13:03.088Z,75.50
2018-07-21T18:15:31.978Z,75.90
2018-07-21T18:18:00.871Z,77.90
2018-07-21T18:20:29.755Z,79.10
2018-07-21T18:22:58.639Z,77.30
2018-07-21T18:25:27.539Z,76.60
2018-07-21T18:27:56.431Z,74.60
2018-07-21T18:30:25.311Z,73.90
2018-07-21T18:32:54.209Z,75.50
2018-07-21T18:35:23.095Z,74.50
2018-07-21T18:37:51.985Z,75.30
2018-07-21T18:40:20.878Z,76.70
2018-07-21T18:42:49.760Z,78.40
2018-07-21T18:45:18.676Z,77.50
2018-07-21T18:47:47.554Z,76.90
2018-07-21T18:50:16.448Z,77.40
2018-07-21T18:52:45.343Z,78.30
2018-07-21T18:55:14.242Z,78.10
2018-07-21T18:57:43.122Z,79.40
2018-07-21T19:00:12.047Z,80.50
2018-07-21T19:02:40.928Z,79.80
2018-07-21T19:05:09.863Z,81.90
2018-07-21T19:07:38.739Z,81.80
2018-07-21T19:10:07.623Z,81.10
2018-07-21T19:12:42.050Z,81.80
2018-07-21T19:15:15.268Z,82.40
2018-07-21T19:17:44.255Z,82.80
2018-07-21T19:20:18.378Z,83.40
2018-07-21T19:22:47.307Z,84.70
2018-07-21T19:25:21.719Z,83.90
2018-07-21T19:27:50.619Z,85.80
2018-07-21T19:30:19.504Z,90.70
2018-07-21T19:32:53.755Z,91.20
2018-07-21T19:35:22.633Z,90.90
2018-07-21T19:37:51.659Z,93.40
2018-07-21T19:40:20.567Z,93.10
2018-07-21T19:42:49.557Z,93.80
2018-07-21T19:45:18.431Z,94.20
2018-07-21T19:47:47.406Z,92.90
2018-07-21T19:50:16.205Z,92.30
2018-07-21T19:52:45.134Z,91.90
2018-07-21T19:55:13.988Z,91.00
2018-07-21T19:57:42.906Z,90.60
2018-07-21T20:00:11.790Z,90.10
2018-07-21T20:02:40.681Z,90.70
2018-07-21T20:05:09.547Z,89.90
2018-07-21T20:07:38.443Z,90.20
2018-07-21T20:10:07.326Z,90.20
2018-07-21T20:12:36.232Z,91.90
2018-07-21T20:15:05.102Z,92.80
2018-07-21T20:17:34.076Z,92.30
2018-07-21T20:20:03.232Z,93.10
2018-07-21T20:22:32.135Z,94.20
2018-07-21T20:27:29.603Z,96.70
2018-07-21T20:29:58.579Z,99.10
2018-07-21T20:32:27.603Z,99.10
2018-07-21T20:34:56.490Z,98.50
2018-07-21T20:37:25.391Z,99.10
2018-07-21T20:39:54.538Z,99.70
2018-07-21T20:42:24.276Z,99.90
2018-07-21T20:44:53.224Z,99.60
2018-07-21T20:47:22.095Z,99.80
2018-07-21T20:49:51.003Z,99.50
2018-07-21T20:52:19.894Z,98.30
2018-07-21T20:54:48.798Z,99.60
2018-07-21T20:57:17.682Z,99.90
2018-07-21T20:59:46.919Z,99.90
2018-07-21T21:02:16.084Z,99.90
2018-07-21T21:04:44.996Z,99.90
2018-07-21T21:07:13.878Z,99.90
2018-07-21T21:09:42.839Z,99.90
2018-07-21T21:12:11.749Z,99.90
2018-07-21T21:14:40.646Z,99.90
2018-07-21T21:17:09.544Z,99.90
2018-07-21T21:19:38.449Z,99.90
2018-07-21T21:22:07.335Z,99.90
2018-07-21T21:24:36.273Z,99.90
2018-07-21T21:27:05.162Z,99.90
2018-07-21T21:29:34.075Z,99.90
2018-07-21T21:32:03.004Z,99.90
2018-07-21T21:34:31.903Z,99.90
2018-07-21T21:37:00.811Z,99.90
2018-07-21T21:39:29.724Z,99.90
2018-07-21T21:41:58.656Z,99.90
2018-07-21T21:44:27.518Z,99.90
2018-07-21T21:46:56.410Z,99.90
2018-07-21T21:49:25.352Z,99.90
2018-07-21T21:51:54.262Z,99.90
2018-07-21T21:54:23.169Z,99.90
2018-07-21T21:56:52.058Z,99.90
2018-07-21T21:59:21.003Z,99.90
2018-07-21T22:01:49.912Z,99.90
2018-07-21T22:04:18.894Z,99.90
2018-07-21T22:06:47.701Z,99.90
2018-07-21T22:09:16.635Z,99.90
2018-07-21T22:11:45.539Z,99.90
2018-07-21T22:14:14.492Z,99.90
2018-07-21T22:16:43.336Z,99.90
2018-07-21T22:19:12.230Z,99.90
2018-07-21T22:21:41.139Z,99.90
2018-07-21T22:24:10.036Z,99.90
2018-07-21T22:26:38.950Z,99.90
2018-07-21T22:29:07.863Z,99.90
2018-07-21T22:31:36.770Z,99.90
2018-07-21T22:34:05.895Z,99.90
2018-07-21T22:36:34.803Z,99.90
2018-07-21T22:39:04.727Z,99.90
2018-07-21T22:41:33.655Z,99.90
2018-07-21T22:44:02.778Z,99.90
2018-07-21T22:46:31.671Z,99.90
2018-07-21T22:49:00.569Z,99.90
2018-07-21T22:51:29.483Z,99.90
2018-07-21T22:53:58.387Z,99.90
2018-07-21T22:56:27.338Z,99.90
2018-07-21T22:58:56.254Z,99.90
2018-07-21T23:01:25.167Z,99.90
2018-07-21T23:03:54.061Z,99.90
2018-07-21T23:06:23.203Z,99.90
2018-07-21T23:08:52.165Z,99.90
2018-07-21T23:11:21.089Z,99.90
2018-07-21T23:13:49.994Z,99.90
2018-07-21T23:16:19.099Z,99.90
2018-07-21T23:18:48.080Z,99.90
2018-07-21T23:21:17.015Z,99.90
2018-07-21T23:23:45.922Z,99.90
2018-07-21T23:26:14.839Z,99.90
2018-07-21T23:28:43.726Z,99.90
2018-07-21T23:31:12.638Z,99.90
2018-07-21T23:33:41.616Z,99.90
2018-07-21T23:36:10.514Z,99.90
2018-07-21T23:38:39.419Z,99.90
2018-07-21T23:41:08.314Z,99.90
2018-07-21T23:43:37.226Z,99.90
2018-07-21T23:46:06.123Z,99.90
2018-07-21T23:48:35.027Z,99.90
2018-07-21T23:51:03.938Z,99.90
2018-07-21T23:53:32.848Z,99.90
2018-07-21T23:56:01.750Z,99.90
2018-07-21T23:58:30.663Z,99.90
